createdAt,value
2023-09-17T00:01:26.896Z,94980.47
2023-09-17T00:03:54.551Z,94982.38
2023-09-17T00:06:22.002Z,94969.75
2023-09-17T00:08:49.258Z,94973.22
2023-09-17T00:11:16.653Z,94980.72
2023-09-17T00:13:43.909Z,94971.88
2023-09-17T00:16:12.196Z,94973.22
2023-09-17T00:18:39.811Z,94975.91
2023-09-17T00:21:07.637Z,94977.00
2023-09-17T00:23:35.315Z,94977.56
2023-09-17T00:26:02.620Z,94970.59
2023-09-17T00:28:29.687Z,94971.97
2023-09-17T00:30:56.889Z,94974.09
2023-09-17T00:33:24.551Z,94979.47
2023-09-17T00:35:53.811Z,94972.50
2023-09-17T00:38:21.232Z,94979.50
2023-09-17T00:40:50.581Z,94971.75
2023-09-17T00:43:19.325Z,94975.22
2023-09-17T00:45:46.917Z,94967.75
2023-09-17T00:48:14.346Z,94967.47
2023-09-17T00:50:41.999Z,94964.00
2023-09-17T00:53:09.919Z,94963.47
2023-09-17T00:55:38.608Z,94953.28
2023-09-17T00:58:07.343Z,94955.47
2023-09-17T01:00:39.407Z,94951.72
2023-09-17T01:03:09.657Z,94946.94
2023-09-17T01:05:43.445Z,94945.34
2023-09-17T01:08:11.315Z,94948.59
2023-09-17T01:10:42.555Z,94947.50
2023-09-17T01:13:10.614Z,94940.28
2023-09-17T01:15:38.867Z,94943.25
2023-09-17T01:18:08.707Z,94941.09
2023-09-17T01:21:16.288Z,94940.63
2023-09-17T01:23:53.294Z,94936.34
2023-09-17T01:26:27.871Z,94947.38
2023-09-17T01:28:55.467Z,94944.41
2023-09-17T01:31:24.793Z,94950.06
2023-09-17T01:33:54.648Z,94939.63
2023-09-17T01:36:35.191Z,94947.91
2023-09-17T01:39:14.661Z,94948.75
2023-09-17T01:41:42.717Z,94961.63
2023-09-17T01:44:11.263Z,94960.59
2023-09-17T01:46:40.438Z,94954.19
2023-09-17T01:49:13.369Z,94950.22
2023-09-17T01:51:41.088Z,94954.81
2023-09-17T01:54:08.473Z,94951.13
2023-09-17T01:56:43.151Z,94961.09
2023-09-17T01:59:10.566Z,94957.38
2023-09-17T02:01:38.210Z,94959.22
2023-09-17T02:04:05.579Z,94957.63
2023-09-17T02:06:32.770Z,94957.09
2023-09-17T02:08:59.946Z,94957.88
2023-09-17T02:11:27.290Z,94965.91
2023-09-17T02:13:54.503Z,94959.19
2023-09-17T02:16:22.330Z,94961.59
2023-09-17T02:18:49.637Z,94961.31
2023-09-17T02:21:17.045Z,94959.19
2023-09-17T02:23:45.614Z,94965.09
2023-09-17T02:26:13.367Z,94962.69
2023-09-17T02:28:40.467Z,94956.56
2023-09-17T02:31:08.112Z,94953.63
2023-09-17T02:33:35.274Z,94959.81
2023-09-17T02:36:04.410Z,94962.19
2023-09-17T02:38:31.478Z,94950.69
2023-09-17T02:40:58.597Z,94958.19
2023-09-17T02:43:25.835Z,94956.31
2023-09-17T02:45:55.259Z,94958.97
2023-09-17T02:48:22.498Z,94964.34
2023-09-17T02:50:49.848Z,94955.28
2023-09-17T02:53:18.232Z,94961.94
2023-09-17T02:55:46.770Z,94959.31
2023-09-17T02:58:14.336Z,94963.06
2023-09-17T03:00:44.414Z,94958.53
2023-09-17T03:03:12.256Z,94960.19
2023-09-17T03:05:39.435Z,94954.81
2023-09-17T03:08:09.986Z,94943.03
2023-09-17T03:10:43.587Z,94958.00
2023-09-17T03:13:13.905Z,94956.44
2023-09-17T03:15:41.545Z,94960.19
2023-09-17T03:18:09.025Z,94953.50
2023-09-17T03:20:36.856Z,94960.72
2023-09-17T03:23:05.643Z,94954.28
2023-09-17T03:25:35.538Z,94962.03
2023-09-17T03:28:02.904Z,94959.38
2023-09-17T03:30:30.316Z,94961.50
2023-09-17T03:33:04.790Z,94959.09
2023-09-17T03:35:40.818Z,94965.25
2023-09-17T03:38:08.608Z,94969.53
2023-09-17T03:40:35.906Z,94969.53
2023-09-17T03:43:04.643Z,94964.47
2023-09-17T03:45:32.331Z,94971.97
2023-09-17T03:47:59.904Z,94967.69
2023-09-17T03:50:29.214Z,94968.47
2023-09-17T03:53:00.144Z,94969.28
2023-09-17T03:55:27.521Z,94963.94
2023-09-17T03:57:57.536Z,94967.94
2023-09-17T04:00:26.514Z,94964.47
2023-09-17T04:02:54.318Z,94967.94
2023-09-17T04:05:22.790Z,94971.16
2023-09-17T04:07:49.999Z,94969.28
2023-09-17T04:10:18.675Z,94963.69
2023-09-17T04:12:46.724Z,94976.06
2023-09-17T04:15:20.383Z,94970.94
2023-09-17T04:17:50.954Z,94971.22
2023-09-17T04:20:22.446Z,94977.38
2023-09-17T04:22:51.795Z,94967.75
2023-09-17T04:25:21.646Z,94970.16
2023-09-17T04:27:51.088Z,94977.66
2023-09-17T04:30:21.098Z,94979.56
2023-09-17T04:32:51.240Z,94987.34
2023-09-17T04:35:19.841Z,94992.16
2023-09-17T04:37:50.267Z,94995.41
2023-09-17T04:40:25.968Z,95008.53
2023-09-17T04:42:53.695Z,94993.00
2023-09-17T04:45:39.878Z,94998.63
2023-09-17T04:48:12.958Z,94998.09
2023-09-17T04:50:46.412Z,95000.28
2023-09-17T04:53:16.113Z,94994.41
2023-09-17T04:55:45.722Z,95004.03
2023-09-17T04:58:15.360Z,95001.88
2023-09-17T05:00:45.372Z,95003.75
2023-09-17T05:03:13.208Z,95005.91
2023-09-17T05:05:40.702Z,95002.97
2023-09-17T05:08:09.029Z,95009.13
2023-09-17T05:10:36.558Z,95009.94
2023-09-17T05:13:04.155Z,95016.09
2023-09-17T05:15:31.482Z,95019.84
2023-09-17T05:18:00.008Z,95027.88
2023-09-17T05:20:28.250Z,95029.19
2023-09-17T05:22:57.392Z,95031.34
2023-09-17T05:25:24.762Z,95030.84
2023-09-17T05:27:52.051Z,95040.72
2023-09-17T05:30:19.137Z,95041.25
2023-09-17T05:32:46.536Z,95043.41
2023-09-17T05:35:14.443Z,95050.88
2023-09-17T05:37:41.685Z,95058.38
2023-09-17T05:40:10.341Z,95053.53
2023-09-17T05:42:38.873Z,95054.31
2023-09-17T05:45:06.700Z,95056.47
2023-09-17T05:47:34.304Z,95056.69
2023-09-17T05:50:01.741Z,95069.53
2023-09-17T05:52:34.393Z,95061.75
2023-09-17T05:55:05.275Z,95063.63
2023-09-17T05:57:34.649Z,95069.22
2023-09-17T06:00:05.058Z,95071.09
2023-09-17T06:02:42.163Z,95066.53
2023-09-17T06:05:11.723Z,95068.66
2023-09-17T06:07:39.028Z,95063.81
2023-09-17T06:10:07.095Z,95068.09
2023-09-17T06:12:34.171Z,95069.41
2023-09-17T06:15:02.685Z,95070.47
2023-09-17T06:17:29.884Z,95070.19
2023-09-17T06:19:57.033Z,95071.53
2023-09-17T06:22:24.909Z,95078.22
2023-09-17T06:24:52.601Z,95075.28
2023-09-17T06:27:19.818Z,95079.56
2023-09-17T06:29:46.879Z,95079.56
2023-09-17T06:32:15.225Z,95069.09
2023-09-17T06:34:42.820Z,95073.66
2023-09-17T06:37:10.402Z,95071.47
2023-09-17T06:39:37.820Z,95065.56
2023-09-17T06:42:05.815Z,95071.19
2023-09-17T06:44:34.006Z,95071.72
2023-09-17T06:47:01.135Z,95066.34
2023-09-17T06:49:28.887Z,95077.59
2023-09-17T06:51:56.877Z,95080.50
2023-09-17T06:54:23.932Z,95082.13
2023-09-17T06:56:53.018Z,95077.53
2023-09-17T06:59:20.038Z,95084.50
2023-09-17T07:01:47.646Z,95081.28
2023-09-17T07:04:15.017Z,95092.81
2023-09-17T07:06:42.323Z,95091.44
2023-09-17T07:09:09.420Z,95095.47
2023-09-17T07:11:36.508Z,95091.69
2023-09-17T07:14:10.288Z,95091.44
2023-09-17T07:16:38.668Z,95093.00
2023-09-17T07:19:06.464Z,95095.44
2023-09-17T07:21:33.732Z,95103.22
2023-09-17T07:24:00.763Z,95101.06
2023-09-17T07:26:29.237Z,95099.44
2023-09-17T07:28:56.452Z,95094.09
2023-09-17T07:31:23.931Z,95095.41
2023-09-17T07:33:51.343Z,95103.16
2023-09-17T07:36:18.795Z,95105.84
2023-09-17T07:38:45.851Z,95116.31
2023-09-17T07:41:13.067Z,95112.53
2023-09-17T07:43:40.289Z,95119.00
2023-09-17T07:46:07.602Z,95112.81
2023-09-17T07:48:35.744Z,95103.69
2023-09-17T07:51:02.849Z,95104.50
2023-09-17T07:53:29.865Z,95107.16
2023-09-17T07:55:57.648Z,95108.22
2023-09-17T07:58:24.923Z,95109.03
2023-09-17T08:00:52.015Z,95109.56
2023-09-17T08:03:20.055Z,95113.84
2023-09-17T08:05:48.633Z,95110.34
2023-09-17T08:08:15.845Z,95119.72
2023-09-17T08:10:43.539Z,95113.25
2023-09-17T08:13:10.696Z,95118.63
2023-09-17T08:15:38.991Z,95123.47
2023-09-17T08:18:06.548Z,95125.31
2023-09-17T08:20:34.027Z,95136.06
2023-09-17T08:23:01.217Z,95132.31
2023-09-17T08:25:28.438Z,95131.50
2023-09-17T08:27:55.563Z,95125.06
2023-09-17T08:30:22.610Z,95121.28
2023-09-17T08:32:49.915Z,95119.41
2023-09-17T08:35:17.232Z,95124.50
2023-09-17T08:37:45.310Z,95119.94
2023-09-17T08:40:15.854Z,95119.94
2023-09-17T08:42:43.930Z,95124.72
2023-09-17T08:45:12.724Z,95119.91
2023-09-17T08:47:40.707Z,95116.38
2023-09-17T08:50:10.491Z,95119.34
2023-09-17T08:52:58.260Z,95123.94
2023-09-17T08:55:25.693Z,95114.78
2023-09-17T08:58:10.335Z,95115.28
2023-09-17T09:00:41.186Z,95113.13
2023-09-17T09:03:09.574Z,95114.47
2023-09-17T09:05:37.584Z,95109.91
2023-09-17T09:08:06.249Z,95114.69
2023-09-17T09:10:33.552Z,95116.00
2023-09-17T09:13:01.305Z,95123.81
2023-09-17T09:15:28.674Z,95112.78
2023-09-17T09:17:56.597Z,95114.09
2023-09-17T09:20:24.180Z,95118.38
2023-09-17T09:22:51.519Z,95108.97
2023-09-17T09:25:19.889Z,95121.03
2023-09-17T09:27:47.247Z,95119.94
2023-09-17T09:30:18.043Z,95112.66
2023-09-17T09:32:46.759Z,95116.69
2023-09-17T09:35:14.267Z,95110.22
2023-09-17T09:37:41.429Z,95119.34
2023-09-17T09:40:09.668Z,95117.44
2023-09-17T09:42:37.248Z,95126.03
2023-09-17T09:45:04.959Z,95111.50
2023-09-17T09:47:33.166Z,95121.69
2023-09-17T09:50:02.165Z,95119.50
2023-09-17T09:52:30.260Z,95113.84
2023-09-17T09:54:57.536Z,95126.44
2023-09-17T09:57:26.771Z,95126.44
2023-09-17T09:59:54.535Z,95122.09
2023-09-17T10:02:23.326Z,95118.84
2023-09-17T10:04:50.782Z,95115.06
2023-09-17T10:07:18.930Z,95112.88
2023-09-17T10:09:47.215Z,95109.13
2023-09-17T10:12:14.623Z,95112.59
2023-09-17T10:14:42.516Z,95116.06
2023-09-17T10:17:12.321Z,95117.69
2023-09-17T10:19:41.636Z,95114.44
2023-09-17T10:22:11.374Z,95110.66
2023-09-17T10:24:39.860Z,95116.25
2023-09-17T10:27:08.057Z,95112.47
2023-09-17T10:29:39.783Z,95110.31
2023-09-17T10:32:10.523Z,95113.50
2023-09-17T10:34:38.290Z,95108.38
2023-09-17T10:37:06.276Z,95109.69
2023-09-17T10:39:34.575Z,95103.22
2023-09-17T10:42:06.159Z,95108.81
2023-09-17T10:44:38.058Z,95110.13
2023-09-17T10:47:12.414Z,95113.31
2023-09-17T10:49:44.026Z,95109.28
2023-09-17T10:52:13.418Z,95110.59
2023-09-17T10:54:40.723Z,95118.34
2023-09-17T10:57:24.077Z,95113.50
2023-09-17T10:59:53.614Z,95105.13
2023-09-17T11:02:23.346Z,95119.91
2023-09-17T11:04:52.186Z,95111.53
2023-09-17T11:07:19.984Z,95106.16
2023-09-17T11:09:47.863Z,95113.88
2023-09-17T11:12:15.092Z,95105.50
2023-09-17T11:14:47.272Z,95102.53
2023-09-17T11:17:19.431Z,95108.13
2023-09-17T11:19:46.679Z,95097.09
2023-09-17T11:22:14.363Z,95104.56
2023-09-17T11:24:45.478Z,95098.13
2023-09-17T11:27:13.537Z,95099.13
2023-09-17T11:29:42.669Z,95101.56
2023-09-17T11:32:10.304Z,95098.59
2023-09-17T11:34:42.383Z,95102.59
2023-09-17T11:37:09.577Z,95097.72
2023-09-17T11:39:38.009Z,95095.50
2023-09-17T11:42:14.227Z,95093.34
2023-09-17T11:44:43.779Z,95097.34
2023-09-17T11:47:13.892Z,95099.47
2023-09-17T11:49:41.916Z,95094.88
2023-09-17T11:52:13.222Z,95095.38
2023-09-17T11:54:52.699Z,95098.28
2023-09-17T11:57:27.862Z,95099.91
2023-09-17T11:59:56.827Z,95094.22
2023-09-17T12:02:24.830Z,95100.91
2023-09-17T12:04:53.466Z,95101.41
2023-09-17T12:07:21.682Z,95105.72
2023-09-17T12:10:08.048Z,95105.13
2023-09-17T12:12:37.916Z,95098.66
2023-09-17T12:15:06.432Z,95093.78
2023-09-17T12:17:43.918Z,95102.06
2023-09-17T12:20:58.115Z,95098.56
2023-09-17T12:24:07.694Z,95096.38
2023-09-17T12:27:26.324Z,95089.91
2023-09-17T12:29:54.868Z,95089.59
2023-09-17T12:32:29.204Z,95087.13
2023-09-17T12:34:58.012Z,95094.81
2023-09-17T12:37:26.878Z,95088.03
2023-09-17T12:39:54.394Z,95085.88
2023-09-17T12:42:22.481Z,95087.16
2023-09-17T12:44:51.069Z,95087.41
